Stations météo

réclame
Mon MeteoGroup
Sumburgh, Grande-Bretagne (3003): Température de l'air & dewpoint: 19.06.2018 14:00:00 - 25.06.2018 14:00:00 (BST)Sumburgh, Grande-Bretagne (3003): Vitesse du vent: 19.06.2018 14:00:00 - 25.06.2018 14:00:00 (BST)Sumburgh, Grande-Bretagne (3003): Direction du vent: 19.06.2018 14:00:00 - 25.06.2018 14:00:00 (BST)Sumburgh, Grande-Bretagne (3003): visibility: 19.06.2018 14:00:00 - 25.06.2018 14:00:00 (BST)
Date & Time tt [°C] td [°C] ff [km/h] ff [knt] dd vv [km]
25.06.2018 14:00:00 12,0 10,0 15 8 W 10
25.06.2018 13:00:00 12,0 10,0 18 10 W 10
25.06.2018 12:00:00 12,0 9,0 22 12 WSW 10
25.06.2018 11:00:00 11,0 9,0 16 9 SW 10
25.06.2018 10:00:00 12,0 9,0 16 9 SW 10
25.06.2018 09:00:00 12,0 9,0 22 12 WSW 10
25.06.2018 08:00:00 11,0 9,0 22 12 WSW 10
25.06.2018 07:00:00 11,0 9,0 22 12 SW 10
25.06.2018 06:00:00 10,0 10,0 21 11 SW 10
25.06.2018 05:00:00 10,0 9,0 21 11 SW 10
25.06.2018 04:00:00 10,0 9,0 21 11 SW 10
25.06.2018 03:00:00 10,0 9,0 21 11 SW 10
25.06.2018 02:00:00 10,0 9,0 18 10 SW 10
25.06.2018 01:00:00 9,0 9,0 5 3 W 8
25.06.2018 00:00:00 9,0 9,0 8 4 W 9
24.06.2018 23:00:00 10,0 9,0 13 7 W 10
24.06.2018 22:00:00 10,0 9,0 8 4 WNW 7
24.06.2018 21:00:00 11,0 10,0 11 6 W 8
24.06.2018 20:00:00 11,0 10,0 21 11 WSW 10
24.06.2018 19:00:00 12,0 10,0 22 12 WSW 10
24.06.2018 18:00:00 12,0 9,0 24 13 W 10
24.06.2018 17:00:00 12,0 10,0 26 14 WSW 10
24.06.2018 16:00:00 12,0 10,0 21 11 WSW 10
24.06.2018 15:00:00 12,0 10,0 24 13 WSW 10
24.06.2018 14:00:00 12,0 10,0 24 13 WSW 10
24.06.2018 13:00:00 12,0 10,0 24 13 WSW 10
24.06.2018 12:00:00 12,0 9,0 26 14 WSW 10
24.06.2018 11:00:00 12,0 10,0 22 12 WSW 10
24.06.2018 10:00:00 11,0 10,0 24 13 WSW 10
24.06.2018 09:00:00 11,0 10,0 24 13 WSW 10
24.06.2018 08:00:00 10,0 10,0 22 12 WSW 9
24.06.2018 07:00:00 10,0 10,0 24 13 WSW 10
24.06.2018 06:00:00 10,0 10,0 24 13 W 6
24.06.2018 05:00:00 10,0 10,0 28 15 W 4,8
24.06.2018 04:00:00 10,0 10,0 28 15 W 4,6
24.06.2018 03:00:00 10,0 10,0 21 11 W 5
24.06.2018 02:00:00 10,0 10,0 11 6 W 3,8
24.06.2018 01:00:00 11,0 10,0 24 13 W 4,6
24.06.2018 00:00:00 11,0 11,0 28 15 W 1,8
23.06.2018 23:00:00 11,0 11,0 28 15 W 1,0
23.06.2018 22:00:00 11,0 10,0 24 13 W 2,7
23.06.2018 21:00:00 11,0 11,0 28 15 W 10
23.06.2018 20:00:00 11,0 11,0 31 17 WNW 2,8
23.06.2018 19:00:00 11,0 11,0 31 17 WNW 6
23.06.2018 18:00:00 11,0 11,0 34 18 W 3,9
23.06.2018 17:00:00 11,0 11,0 28 15 W 1,2
23.06.2018 16:00:00 11,0 11,0 24 13 W 0,9
23.06.2018 15:00:00 11,0 10,0 22 12 W 1,3
23.06.2018 14:00:00 11,0 10,0 34 18 W 2,5
23.06.2018 13:00:00 - - - - - -
23.06.2018 12:00:00 11,0 10,0 28 15 W 3,0
23.06.2018 11:00:00 11,0 10,0 26 14 WSW 7
23.06.2018 10:00:00 10,0 10,0 29 16 W 6
23.06.2018 09:00:00 10,0 10,0 29 16 W 6
23.06.2018 08:00:00 10,0 10,0 28 15 W 4,5
23.06.2018 07:00:00 10,0 10,0 29 16 W 6
23.06.2018 06:00:00 10,0 10,0 29 16 W 4,1
23.06.2018 05:00:00 10,0 9,0 29 16 W 8
23.06.2018 04:00:00 10,0 9,0 28 15 W 8
23.06.2018 03:00:00 11,0 9,0 41 22 WNW 10
23.06.2018 02:00:00 10,0 9,0 35 19 WNW 4,2
23.06.2018 01:00:00 11,0 9,0 35 19 W 10
23.06.2018 00:00:00 11,0 9,0 34 18 W 10
22.06.2018 23:00:00 10,0 9,0 31 17 W 10
22.06.2018 22:00:00 11,0 9,0 37 20 WNW 10
22.06.2018 21:00:00 11,0 9,0 31 17 WNW 10
22.06.2018 20:00:00 11,0 9,0 31 17 W 10
22.06.2018 19:00:00 11,0 8,0 31 17 WNW 10
22.06.2018 18:00:00 11,0 8,0 34 18 W 10
22.06.2018 17:00:00 11,0 8,0 34 18 WNW 10
22.06.2018 16:00:00 11,0 9,0 34 18 WNW 10
22.06.2018 15:00:00 - - - - - -
22.06.2018 14:00:00 10,0 9,0 29 16 WNW 10
22.06.2018 13:00:00 10,0 9,0 28 15 WNW 6
22.06.2018 12:00:00 10,0 9,0 31 17 WNW 10
22.06.2018 11:00:00 10,0 10,0 31 17 WNW 9
22.06.2018 10:00:00 10,0 9,0 24 13 WNW 7
22.06.2018 09:00:00 11,0 9,0 26 14 WNW 10
22.06.2018 08:00:00 10,0 8,0 29 16 NW 10
22.06.2018 07:00:00 - - - - - -
22.06.2018 06:00:00 10,0 7,0 26 14 NW 10
22.06.2018 05:00:00 10,0 6,0 26 14 NW 10
22.06.2018 04:00:00 9,0 5,0 24 13 NW 10
22.06.2018 03:00:00 9,0 4,0 22 12 NNW 10
22.06.2018 02:00:00 9,0 5,0 21 11 NNW 10
22.06.2018 01:00:00 9,0 5,0 28 15 NNW 10
22.06.2018 00:00:00 9,0 5,0 29 16 NNW 10
21.06.2018 23:00:00 9,0 6,0 34 18 NNW 10
21.06.2018 22:00:00 9,0 5,0 29 16 NNW 10
21.06.2018 21:00:00 9,0 6,0 29 16 NNW 10
21.06.2018 20:00:00 10,0 6,0 31 17 NW 10
21.06.2018 19:00:00 10,0 6,0 34 18 NNW 10
21.06.2018 18:00:00 10,0 6,0 35 19 NNW 10
21.06.2018 17:00:00 11,0 7,0 41 22 NW 10
21.06.2018 16:00:00 10,0 7,0 41 22 NW 10
21.06.2018 15:00:00 9,0 8,0 24 13 NNW 10
21.06.2018 14:00:00 9,0 7,0 34 18 NW 10
21.06.2018 13:00:00 10,0 7,0 41 22 NW 10
21.06.2018 12:00:00 9,0 7,0 35 19 NW 10
21.06.2018 11:00:00 10,0 7,0 35 19 NW 10
21.06.2018 10:00:00 9,0 6,0 31 17 NW 10
21.06.2018 09:00:00 8,0 6,0 41 22 NW 10
21.06.2018 08:00:00 9,0 6,0 35 19 WNW 10
21.06.2018 07:00:00 8,0 7,0 22 12 NW 10
21.06.2018 06:00:00 9,0 7,0 35 19 NW 5
21.06.2018 05:00:00 9,0 6,0 28 15 WNW 10
21.06.2018 04:00:00 9,0 6,0 26 14 NW 10
21.06.2018 03:00:00 9,0 6,0 21 11 WNW 10
21.06.2018 02:00:00 9,0 6,0 21 11 WNW 10
21.06.2018 01:00:00 9,0 7,0 11 6 WNW 10
21.06.2018 00:00:00 8,0 6,0 11 6 NW 10
20.06.2018 23:00:00 9,0 6,0 9 5 WNW 10
20.06.2018 22:00:00 9,0 6,0 11 6 WNW 10
20.06.2018 21:00:00 9,0 7,0 9 5 NW 10
20.06.2018 20:00:00 11,0 7,0 13 7 W 10
20.06.2018 19:00:00 11,0 8,0 15 8 W 10
20.06.2018 18:00:00 12,0 8,0 15 8 WSW 10
20.06.2018 17:00:00 12,0 7,0 15 8 W 10
20.06.2018 16:00:00 12,0 8,0 16 9 W 10
20.06.2018 15:00:00 12,0 8,0 16 9 W 10
20.06.2018 14:00:00 12,0 6,0 18 10 W 10
20.06.2018 13:00:00 12,0 8,0 13 7 W 10
20.06.2018 12:00:00 12,0 8,0 13 7 W 10
20.06.2018 11:00:00 11,0 8,0 11 6 W 10
20.06.2018 10:00:00 11,0 8,0 9 5 W 10
20.06.2018 09:00:00 10,0 8,0 9 5 W 10
20.06.2018 08:00:00 10,0 8,0 8 4 W 10
20.06.2018 07:00:00 10,0 8,0 5 3 SW 10
20.06.2018 06:00:00 10,0 7,0 5 3 W 10
20.06.2018 05:00:00 9,0 7,0 9 5 W 8
20.06.2018 04:00:00 9,0 8,0 11 6 WSW 6
20.06.2018 03:00:00 9,0 8,0 15 8 WSW 10
20.06.2018 02:00:00 9,0 7,0 18 10 WSW 10
20.06.2018 01:00:00 9,0 7,0 16 9 WSW 10
20.06.2018 00:00:00 10,0 8,0 22 12 WSW 10
19.06.2018 23:00:00 10,0 8,0 21 11 W 10
19.06.2018 22:00:00 10,0 8,0 26 14 WSW 10
19.06.2018 21:00:00 10,0 8,0 29 16 WSW 10
19.06.2018 20:00:00 11,0 7,0 34 18 WSW 10
19.06.2018 19:00:00 11,0 8,0 29 16 WSW 10
19.06.2018 18:00:00 10,0 7,0 37 20 WSW 10
19.06.2018 17:00:00 12,0 7,0 42 23 W 10
19.06.2018 16:00:00 12,0 8,0 35 19 W 10
19.06.2018 15:00:00 12,0 7,0 39 21 W 10
19.06.2018 14:00:00 12,0 7,0 39 21 WSW 10

tt = Température de l'air
td = dewpoint
ff = Vitesse du vent
dd = Direction du vent
vv = visibility

stations d'obs. à proximité